ADDS METAR Data INFO
IDs: Format: Raw Decoded Include TAF

Data at: 1516 UTC 23 Oct 2017

K3AU 231455Z AUTO 34015G20KT 10SM CLR 13/05 A3005 RMK AO2
K3AU 231435Z AUTO 33010G14KT 10SM CLR 12/05 A3004 RMK AO2
K3AU 231415Z AUTO 31006KT 10SM CLR 10/05 A3001 RMK AO2
K3AU 231355Z AUTO 29006KT 10SM CLR 09/05 A3002 RMK AO2
K3AU 231335Z AUTO 28006KT 10SM CLR 08/05 A3001 RMK AO2
K3AU 231315Z AUTO 29007KT 10SM CLR 08/05 A3000 RMK AO2
K3AU 231255Z AUTO 23005KT 10SM CLR 07/05 A2997 RMK AO2
K3AU 231235Z AUTO 22004KT 10SM CLR 07/05 A2997 RMK AO2
K3AU 231215Z AUTO 18005KT 10SM CLR 06/05 A2997 RMK AO2
K3AU 231155Z AUTO 19005KT 10SM CLR 07/04 A2997 RMK AO2
K3AU 231135Z AUTO 18005KT 10SM CLR 07/04 A2997 RMK AO2
K3AU 231115Z AUTO 21004KT 10SM CLR 07/04 A2997 RMK AO2
K3AU 231055Z AUTO 19005KT 10SM CLR 07/04 A2997 RMK AO2
K3AU 231035Z AUTO 20006KT 10SM CLR 07/04 A2997 RMK AO2
K3AU 231015Z AUTO 17005KT 10SM CLR 06/04 A2998 RMK AO2
K3AU 230955Z AUTO 17006KT 10SM CLR 07/04 A2998 RMK AO2
K3AU 230935Z AUTO 17005KT 10SM CLR 07/04 A3000 RMK AO2
K3AU 230915Z AUTO 18006KT 10SM CLR 07/04 A3001 RMK AO2
K3AU 230855Z AUTO 18004KT 10SM CLR 08/04 A3002 RMK AO2
K3AU 230835Z AUTO 18005KT 10SM CLR 08/04 A3002 RMK AO2
K3AU 230815Z AUTO 19005KT 10SM CLR 08/04 A3003 RMK AO2
K3AU 230755Z AUTO 19006KT 10SM CLR 10/04 A3003 RMK AO2
K3AU 230735Z AUTO 20006KT 10SM CLR 10/04 A3004 RMK AO2
K3AU 230715Z AUTO 20005KT 10SM CLR 10/04 A3004 RMK AO2
K3AU 230655Z AUTO 19006KT 10SM CLR 10/04 A3004 RMK AO2
K3AU 230635Z AUTO 20006KT 10SM CLR 10/04 A3005 RMK AO2
K3AU 230615Z AUTO 20005KT 10SM CLR 10/04 A3006 RMK AO2
K3AU 230555Z AUTO 19005KT 10SM CLR 08/05 A3007 RMK AO2
K3AU 230535Z AUTO 17005KT 10SM CLR 08/05 A3007 RMK AO2
K3AU 230515Z AUTO 17004KT 10SM CLR 08/05 A3008 RMK AO2
K3AU 230455Z AUTO 19004KT 10SM CLR 10/05 A3008 RMK AO2
K3AU 230435Z AUTO 20003KT 10SM CLR 10/05 A3009 RMK AO2
K3AU 230415Z AUTO 17003KT 10SM CLR 10/05 A3008 RMK AO2
K3AU 230355Z AUTO 16003KT 10SM CLR 10/05 A3009 RMK AO2
K3AU 230335Z AUTO 17004KT 10SM CLR 10/05 A3009 RMK AO2
K3AU 230315Z AUTO 16004KT 10SM CLR 10/05 A3009 RMK AO2
K3AU 230255Z AUTO 17004KT 10SM CLR 10/05 A3009 RMK AO2
K3AU 230235Z AUTO 17004KT 10SM CLR 10/05 A3009 RMK AO2
K3AU 230215Z AUTO 17004KT 10SM CLR 10/05 A3009 RMK AO2
K3AU 230155Z AUTO 17005KT 10SM CLR 11/05 A3009 RMK AO2
K3AU 230135Z AUTO 16004KT 10SM CLR 12/05 A3010 RMK AO2
K3AU 230115Z AUTO 17003KT 10SM CLR 12/04 A3011 RMK AO2
K3AU 230055Z AUTO 17003KT 10SM CLR 13/05 A3011 RMK AO2
K3AU 230035Z AUTO 15004KT 10SM CLR 13/04 A3010 RMK AO2
K3AU 230015Z AUTO 15004KT 10SM CLR 14/03 A3010 RMK AO2
K3AU 222355Z AUTO 16005KT 10SM CLR 15/04 A3010 RMK AO2
K3AU 222335Z AUTO 16005KT 10SM CLR 15/05 A3011 RMK AO2
K3AU 222315Z AUTO 18004KT 10SM CLR 17/03 A3011 RMK AO2
K3AU 222255Z AUTO 00000KT 10SM CLR 18/00 A3010 RMK AO2
K3AU 222235Z AUTO 23004KT 10SM CLR 19/M02 A3010 RMK AO2
K3AU 222215Z AUTO 26005KT 10SM CLR 19/M01 A3011 RMK AO2
K3AU 222155Z AUTO 22006KT 10SM CLR 20/00 A3012 RMK AO2
K3AU 222135Z AUTO 19005KT 10SM CLR 19/00 A3012 RMK AO2
K3AU 222115Z AUTO 29005KT 10SM CLR 20/00 A3013 RMK AO2
K3AU 222055Z AUTO 28005KT 10SM CLR 20/00 A3013 RMK AO2
K3AU 222035Z AUTO 28007KT 10SM CLR 19/00 A3013 RMK AO2
K3AU 222015Z AUTO 28006KT 10SM CLR 19/01 A3014 RMK AO2
K3AU 221955Z AUTO 28006KT 10SM CLR 19/02 A3014 RMK AO2
K3AU 221935Z AUTO 00000KT 10SM CLR 18/02 A3015 RMK AO2
K3AU 221915Z AUTO 23004KT 10SM CLR 18/03 A3015 RMK AO2
K3AU 221855Z AUTO 25005KT 10SM CLR 18/02 A3016 RMK AO2
K3AU 221835Z AUTO 27008KT 240V320 10SM CLR 18/02 A3017 RMK AO2
K3AU 221815Z AUTO 30006KT 10SM CLR 17/01 A3018 RMK AO2
K3AU 221755Z AUTO 28008KT 10SM CLR 17/02 A3019 RMK AO2
K3AU 221735Z AUTO 30005KT 10SM CLR 17/02 A3020 RMK AO2
K3AU 221715Z AUTO 31007KT 10SM CLR 17/02 A3020 RMK AO2
K3AU 221655Z AUTO 33006KT 10SM CLR 16/03 A3020 RMK AO2
K3AU 221635Z AUTO 31007KT 10SM CLR 16/05 A3020 RMK AO2
K3AU 221615Z AUTO 33008KT 10SM CLR 15/05 A3020 RMK AO2
K3AU 221555Z AUTO 31005KT 10SM CLR 15/06 A3020 RMK AO2
K3AU 221535Z AUTO 32005KT 10SM CLR 13/06 A3020 RMK AO2
K3AU 221515Z AUTO 32004KT 10SM CLR 12/06 A3020 RMK AO2
K3AU 221455Z AUTO 31006KT 10SM CLR 11/06 A3019 RMK AO2
K3AU 221435Z AUTO 29005KT 10SM CLR 10/06 A3019 RMK AO2
K3AU 221415Z AUTO 30004KT 10SM CLR 09/06 A3019 RMK AO2
K3AU 221355Z AUTO 31003KT 10SM CLR 08/05 A3018 RMK AO2
K3AU 221335Z AUTO 31005KT 10SM CLR 07/05 A3017 RMK AO2
K3AU 221315Z AUTO 32005KT 10SM CLR 07/05 A3017 RMK AO2
K3AU 221255Z AUTO 31008KT 10SM CLR 06/05 A3016 RMK AO2
K3AU 221235Z AUTO 31007KT 10SM CLR 07/05 A3016 RMK AO2
K3AU 221215Z AUTO 31007KT 10SM CLR 07/05 A3015 RMK AO2
K3AU 221155Z AUTO 32005KT 10SM CLR 06/05 A3014 RMK AO2
K3AU 221135Z AUTO 32005KT 10SM CLR 07/05 A3014 RMK AO2
K3AU 221115Z AUTO 31004KT 10SM CLR 07/05 A3014 RMK AO2
K3AU 221055Z AUTO 31004KT 10SM CLR 07/05 A3013 RMK AO2
K3AU 221035Z AUTO 30005KT 10SM CLR 07/05 A3013 RMK AO2
K3AU 221015Z AUTO 30005KT 10SM CLR 07/06 A3011 RMK AO2
K3AU 220955Z AUTO 29005KT 10SM CLR 07/06 A3011 RMK AO2
K3AU 220935Z AUTO 32004KT 10SM CLR 08/06 A3008 RMK AO2
K3AU 220915Z AUTO 30003KT 10SM CLR 08/06 A3007 RMK AO2
K3AU 220855Z AUTO 30005KT 10SM CLR 08/07 A3007 RMK AO2
K3AU 220835Z AUTO 31003KT 10SM CLR 08/07 A3007 RMK AO2
K3AU 220815Z AUTO 30003KT 10SM CLR 08/07 A3006 RMK AO2
K3AU 220755Z AUTO 32004KT 10SM CLR 09/07 A3004 RMK AO2
K3AU 220735Z AUTO 36004KT 10SM CLR 10/08 A3004 RMK AO2
K3AU 220715Z AUTO 35004KT 10SM CLR 10/08 A3004 RMK AO2
K3AU 220655Z AUTO 36004KT 10SM CLR 10/08 A3004 RMK AO2
K3AU 220635Z AUTO 34004KT 10SM CLR 10/08 A3004 RMK AO2
K3AU 220615Z AUTO 33004KT 10SM CLR 10/09 A3002 RMK AO2
K3AU 220555Z AUTO 34005KT 10SM CLR 11/09 A2999 RMK AO2
K3AU 220535Z AUTO 01006KT 10SM SCT110 11/10 A2999 RMK AO2
K3AU 220515Z AUTO 36007KT 10SM BKN100 OVC120 11/10 A2999 RMK AO2
K3AU 220455Z AUTO 36006KT 10SM OVC090 11/10 A3000 RMK AO2
K3AU 220435Z AUTO 35003KT 10SM OVC090 11/10 A3003 RMK AO2
K3AU 220415Z AUTO 35005KT 10SM -RA OVC090 11/10 A3001 RMK AO2
K3AU 220355Z AUTO 03009KT 10SM -RA OVC090 11/10 A3000 RMK AO2
K3AU 220335Z AUTO 01008KT 10SM -RA OVC090 11/10 A3000 RMK AO2